createdAt,value
2018-08-27T00:01:03.596Z,15.44
2018-08-27T00:03:31.675Z,15.45
2018-08-27T00:05:59.762Z,15.44
2018-08-27T00:08:27.858Z,15.52
2018-08-27T00:10:55.985Z,15.59
2018-08-27T00:13:24.100Z,15.52
2018-08-27T00:15:52.151Z,15.56
2018-08-27T00:18:20.207Z,15.55
2018-08-27T00:20:48.313Z,15.47
2018-08-27T00:23:16.370Z,15.51
2018-08-27T00:25:44.455Z,15.49
2018-08-27T00:28:12.579Z,15.58
2018-08-27T00:30:40.701Z,15.59
2018-08-27T00:33:08.759Z,15.59
2018-08-27T00:35:36.851Z,15.65
2018-08-27T00:38:05.037Z,15.65
2018-08-27T00:40:33.136Z,15.46
2018-08-27T00:43:01.219Z,15.51
2018-08-27T00:45:29.288Z,15.52
2018-08-27T00:47:57.411Z,15.60
2018-08-27T00:50:25.504Z,15.59
2018-08-27T00:52:53.647Z,15.59
2018-08-27T00:55:21.809Z,15.70
2018-08-27T00:57:49.917Z,15.80
2018-08-27T01:00:18.068Z,15.75
2018-08-27T01:02:46.187Z,15.74
2018-08-27T01:05:14.283Z,15.77
2018-08-27T01:07:42.361Z,15.80
2018-08-27T01:10:10.515Z,15.73
2018-08-27T01:12:38.589Z,15.74
2018-08-27T01:15:06.906Z,15.72
2018-08-27T01:17:34.992Z,15.70
2018-08-27T01:20:03.095Z,15.65
2018-08-27T01:22:31.240Z,15.72
2018-08-27T01:24:59.223Z,15.72
2018-08-27T01:27:27.367Z,15.69
2018-08-27T01:29:55.448Z,15.68
2018-08-27T01:32:25.962Z,15.74
2018-08-27T01:34:54.731Z,15.82
2018-08-27T01:37:22.850Z,15.84
2018-08-27T01:39:50.959Z,15.84
2018-08-27T01:42:19.049Z,16.04
2018-08-27T01:44:47.116Z,16.05
2018-08-27T01:47:15.295Z,16.07
2018-08-27T01:49:43.437Z,16.07
2018-08-27T01:52:11.842Z,15.98
2018-08-27T01:54:39.904Z,16.18
2018-08-27T01:57:07.976Z,16.13
2018-08-27T01:59:36.048Z,16.12
2018-08-27T02:02:04.437Z,16.05
2018-08-27T02:04:32.551Z,16.10
2018-08-27T02:07:00.660Z,16.11
2018-08-27T02:09:28.740Z,16.14
2018-08-27T02:11:58.063Z,16.11
2018-08-27T02:14:27.263Z,16.15
2018-08-27T02:16:55.465Z,16.14
2018-08-27T02:19:23.636Z,16.10
2018-08-27T02:21:52.744Z,16.15
2018-08-27T02:24:20.853Z,16.15
2018-08-27T02:26:48.932Z,16.07
2018-08-27T02:29:17.010Z,16.13
2018-08-27T02:31:45.141Z,16.13
2018-08-27T02:34:13.295Z,16.16
2018-08-27T02:36:41.359Z,16.17
2018-08-27T02:39:11.761Z,16.32
2018-08-27T02:41:39.864Z,16.26
2018-08-27T02:44:07.965Z,16.13
2018-08-27T02:46:36.027Z,16.13
2018-08-27T02:49:04.101Z,16.19
2018-08-27T02:51:32.219Z,16.26
2018-08-27T02:54:00.336Z,16.35
2018-08-27T02:56:28.420Z,16.36
2018-08-27T02:58:56.528Z,16.46
2018-08-27T03:01:24.592Z,16.48
2018-08-27T03:03:52.739Z,16.52
2018-08-27T03:06:20.842Z,16.42
2018-08-27T03:08:48.911Z,16.38
2018-08-27T03:11:16.986Z,16.45
2018-08-27T03:13:51.864Z,16.40
2018-08-27T03:16:20.120Z,16.46
2018-08-27T03:18:48.319Z,16.50
2018-08-27T03:21:16.642Z,16.42
2018-08-27T03:23:44.851Z,16.43
2018-08-27T03:26:13.045Z,16.47
2018-08-27T03:28:41.171Z,16.53
2018-08-27T03:31:09.244Z,16.57
2018-08-27T03:33:37.322Z,16.56
2018-08-27T03:36:05.743Z,16.52
2018-08-27T03:38:33.830Z,16.55
2018-08-27T03:41:01.922Z,16.44
2018-08-27T03:43:30.012Z,16.24
2018-08-27T03:45:58.099Z,16.38
2018-08-27T03:48:26.181Z,16.58
2018-08-27T03:50:54.241Z,16.62
2018-08-27T03:53:22.447Z,16.63
2018-08-27T03:55:50.513Z,16.53
2018-08-27T03:58:18.594Z,16.53
2018-08-27T04:04:00.069Z,16.51
2018-08-27T04:06:28.136Z,16.56
2018-08-27T04:10:41.399Z,16.53
2018-08-27T04:13:09.519Z,16.43
2018-08-27T04:15:37.584Z,16.48
2018-08-27T04:18:06.004Z,16.52
2018-08-27T04:20:34.100Z,16.63
2018-08-27T04:23:02.230Z,16.62
2018-08-27T04:25:30.360Z,16.62
2018-08-27T04:27:58.447Z,16.54
2018-08-27T04:30:26.615Z,16.68
2018-08-27T04:32:54.675Z,16.57
2018-08-27T04:35:22.760Z,16.54
2018-08-27T04:37:50.859Z,16.56
2018-08-27T04:40:18.952Z,16.58
2018-08-27T04:42:47.032Z,16.51
2018-08-27T04:45:15.123Z,16.57
2018-08-27T04:47:43.205Z,16.63
2018-08-27T04:50:11.295Z,16.58
2018-08-27T04:52:39.447Z,16.60
2018-08-27T04:55:07.616Z,16.68
2018-08-27T04:57:35.723Z,16.65
2018-08-27T05:00:07.760Z,16.45
2018-08-27T05:02:35.852Z,16.51
2018-08-27T05:05:04.123Z,16.53
2018-08-27T05:07:32.259Z,16.53
2018-08-27T05:10:00.504Z,16.62
2018-08-27T05:12:28.647Z,16.38
2018-08-27T05:14:56.758Z,16.50
2018-08-27T05:17:24.980Z,16.55
2018-08-27T05:19:53.052Z,16.45
2018-08-27T05:22:21.220Z,16.47
2018-08-27T05:24:49.327Z,16.54
2018-08-27T05:27:17.443Z,16.47
2018-08-27T05:29:45.624Z,16.33
2018-08-27T05:32:13.820Z,16.34
2018-08-27T05:34:41.937Z,16.42
2018-08-27T05:37:10.001Z,16.51
2018-08-27T05:39:38.123Z,16.47
2018-08-27T05:42:06.233Z,16.26
2018-08-27T05:44:34.430Z,16.18
2018-08-27T05:47:02.544Z,16.38
2018-08-27T05:49:30.689Z,16.34
2018-08-27T05:51:58.916Z,16.43
2018-08-27T05:54:27.071Z,16.48
2018-08-27T05:56:55.129Z,16.45
2018-08-27T05:59:23.191Z,16.43
2018-08-27T06:01:51.904Z,16.22
2018-08-27T06:04:19.967Z,16.05
2018-08-27T06:06:48.092Z,16.04
2018-08-27T06:09:16.232Z,16.24
2018-08-27T06:11:44.297Z,16.10
2018-08-27T06:14:12.370Z,16.11
2018-08-27T06:16:40.468Z,15.92
2018-08-27T06:19:08.558Z,16.01
2018-08-27T06:21:36.615Z,15.66
2018-08-27T06:24:04.784Z,15.91
2018-08-27T06:26:32.863Z,16.05
2018-08-27T06:29:00.964Z,16.08
2018-08-27T06:31:29.175Z,16.00
2018-08-27T06:33:57.258Z,16.17
2018-08-27T06:36:25.340Z,16.08
2018-08-27T06:38:53.570Z,16.05
2018-08-27T06:41:21.714Z,16.17
2018-08-27T06:43:49.741Z,16.35
2018-08-27T06:46:17.902Z,16.53
2018-08-27T06:48:45.939Z,16.39
2018-08-27T06:51:14.039Z,16.37
2018-08-27T06:53:42.128Z,16.35
2018-08-27T06:56:10.358Z,16.38
2018-08-27T06:58:38.421Z,16.40
2018-08-27T07:01:06.528Z,16.40
2018-08-27T07:03:34.590Z,16.52
2018-08-27T07:06:02.701Z,16.67
2018-08-27T07:08:30.776Z,16.81
2018-08-27T07:10:58.859Z,16.64
2018-08-27T07:13:26.976Z,16.65
2018-08-27T07:15:55.059Z,16.92
2018-08-27T07:18:23.192Z,16.90
2018-08-27T07:20:51.273Z,16.75
2018-08-27T07:23:19.397Z,16.97
2018-08-27T07:25:47.462Z,17.12
2018-08-27T07:28:15.553Z,17.14
2018-08-27T07:30:43.784Z,17.36
2018-08-27T07:33:11.863Z,17.39
2018-08-27T07:35:39.966Z,17.34
2018-08-27T07:38:08.023Z,17.44
2018-08-27T07:40:36.100Z,17.31
2018-08-27T07:43:04.167Z,17.45
2018-08-27T07:45:32.256Z,17.47
2018-08-27T07:48:00.323Z,17.38
2018-08-27T07:50:28.401Z,17.36
2018-08-27T07:52:56.488Z,17.50
2018-08-27T07:55:24.578Z,17.66
2018-08-27T07:57:52.648Z,17.76
2018-08-27T08:00:22.375Z,17.59
2018-08-27T08:02:51.565Z,17.62
2018-08-27T08:05:19.783Z,17.78
2018-08-27T08:07:48.195Z,17.64
2018-08-27T08:10:16.732Z,17.77
2018-08-27T08:12:45.963Z,17.72
2018-08-27T08:15:14.073Z,17.61
2018-08-27T08:17:42.162Z,17.58
2018-08-27T08:20:10.243Z,17.27
2018-08-27T08:22:38.348Z,17.38
2018-08-27T08:25:06.415Z,17.63
2018-08-27T08:27:34.521Z,17.77
2018-08-27T08:30:02.611Z,17.81
2018-08-27T08:32:30.745Z,17.87
2018-08-27T08:34:58.840Z,17.75
2018-08-27T08:37:26.960Z,17.82
2018-08-27T08:39:55.314Z,17.95
2018-08-27T08:42:23.246Z,17.79
2018-08-27T08:44:51.351Z,17.71
2018-08-27T08:47:19.448Z,17.74
2018-08-27T08:49:47.631Z,17.64
2018-08-27T08:52:15.710Z,17.61
2018-08-27T08:54:43.772Z,17.87
2018-08-27T08:57:11.892Z,17.79
2018-08-27T08:59:40.083Z,17.63
2018-08-27T09:02:08.238Z,17.70
2018-08-27T09:04:36.311Z,17.75
2018-08-27T09:07:04.564Z,17.74
2018-08-27T09:09:32.667Z,17.70
2018-08-27T09:12:00.817Z,17.76
2018-08-27T09:14:28.932Z,17.79
2018-08-27T09:16:57.079Z,17.78
2018-08-27T09:19:25.215Z,17.85
2018-08-27T09:21:53.304Z,17.82
2018-08-27T09:24:21.464Z,17.62
2018-08-27T09:26:49.628Z,17.40
2018-08-27T09:29:17.732Z,17.33
2018-08-27T09:31:45.876Z,17.54
2018-08-27T09:34:14.031Z,17.75
2018-08-27T09:36:42.109Z,17.97
2018-08-27T09:39:10.412Z,17.98
2018-08-27T09:41:38.741Z,17.97
2018-08-27T09:44:06.895Z,17.68
2018-08-27T09:46:35.030Z,18.01
2018-08-27T09:49:03.215Z,18.18
2018-08-27T09:51:31.360Z,18.31
2018-08-27T09:53:59.585Z,18.16
2018-08-27T09:56:28.117Z,18.21
2018-08-27T09:58:56.252Z,18.35
2018-08-27T10:01:29.779Z,18.54
2018-08-27T10:03:57.901Z,18.36
2018-08-27T10:06:26.060Z,18.51
2018-08-27T10:08:54.148Z,18.41
2018-08-27T10:11:22.204Z,18.25
2018-08-27T10:13:50.328Z,18.18
2018-08-27T10:16:18.476Z,18.39
2018-08-27T10:18:46.562Z,18.35
2018-08-27T10:21:14.658Z,18.20
2018-08-27T10:23:42.784Z,18.34
2018-08-27T10:26:10.884Z,18.76
2018-08-27T10:28:39.035Z,18.87
2018-08-27T10:31:07.326Z,18.80
2018-08-27T10:33:35.560Z,18.38
2018-08-27T10:36:03.699Z,18.54
2018-08-27T10:38:31.796Z,18.58
2018-08-27T10:41:00.057Z,18.44
2018-08-27T10:43:28.217Z,18.23
2018-08-27T10:45:56.350Z,18.49
2018-08-27T10:48:24.514Z,18.52
2018-08-27T10:50:52.615Z,18.43
2018-08-27T10:53:20.701Z,18.54
2018-08-27T10:55:48.763Z,18.63
2018-08-27T10:58:16.919Z,18.66
2018-08-27T11:00:45.116Z,18.54
2018-08-27T11:03:13.345Z,19.02
2018-08-27T11:05:41.505Z,19.16
2018-08-27T11:08:09.586Z,18.98
2018-08-27T11:10:37.784Z,19.26
2018-08-27T11:13:05.996Z,19.02
2018-08-27T11:15:34.127Z,18.87
2018-08-27T11:18:02.490Z,18.97
2018-08-27T11:20:30.743Z,18.88
2018-08-27T11:22:58.741Z,18.81
2018-08-27T11:25:26.959Z,18.98
2018-08-27T11:27:55.075Z,19.16
2018-08-27T11:30:23.353Z,19.14
2018-08-27T11:32:51.504Z,19.04
2018-08-27T11:35:19.632Z,19.20
2018-08-27T11:37:47.703Z,19.46
2018-08-27T11:40:15.767Z,19.54
2018-08-27T11:42:44.241Z,19.33
2018-08-27T11:45:12.328Z,19.35
2018-08-27T11:47:40.420Z,19.44
2018-08-27T11:50:09.298Z,19.31
2018-08-27T11:52:37.471Z,19.60
2018-08-27T11:55:06.384Z,19.80
2018-08-27T11:57:34.352Z,19.78
2018-08-27T12:00:02.419Z,19.83
2018-08-27T12:02:30.496Z,20.06
2018-08-27T12:04:58.585Z,20.01
2018-08-27T12:07:26.651Z,19.85
2018-08-27T12:09:54.731Z,19.92
2018-08-27T12:12:22.799Z,20.24
2018-08-27T12:14:50.903Z,20.14
2018-08-27T12:17:18.959Z,20.32
2018-08-27T12:19:47.069Z,19.89
2018-08-27T12:22:15.146Z,19.88
2018-08-27T12:24:43.220Z,19.93
2018-08-27T12:27:11.311Z,20.33
2018-08-27T12:29:39.417Z,20.52
2018-08-27T12:32:07.482Z,20.51
2018-08-27T12:34:35.607Z,20.80
2018-08-27T12:37:03.699Z,20.79
2018-08-27T12:39:31.782Z,20.73
2018-08-27T12:41:59.870Z,20.99
2018-08-27T12:44:27.946Z,21.04
2018-08-27T12:46:56.009Z,20.43
2018-08-27T12:49:24.085Z,20.36
2018-08-27T12:51:52.147Z,20.77
2018-08-27T12:54:20.229Z,20.87
2018-08-27T12:56:48.314Z,21.20
2018-08-27T12:59:16.404Z,21.38
2018-08-27T13:01:44.517Z,21.25
2018-08-27T13:04:12.571Z,21.55
2018-08-27T13:06:40.640Z,21.27
2018-08-27T13:09:09.606Z,21.12
2018-08-27T13:11:37.891Z,20.93
2018-08-27T13:14:06.216Z,20.78
2018-08-27T13:16:34.374Z,20.78
2018-08-27T13:19:02.783Z,21.13
2018-08-27T13:21:30.854Z,21.06
2018-08-27T13:23:58.939Z,21.32
2018-08-27T13:26:26.999Z,20.99
2018-08-27T13:28:55.103Z,21.02
2018-08-27T13:31:23.245Z,21.28
2018-08-27T13:33:51.275Z,21.14
2018-08-27T13:36:19.350Z,21.07
2018-08-27T13:38:47.519Z,20.86
2018-08-27T13:41:15.801Z,20.87
2018-08-27T13:43:44.020Z,20.93
2018-08-27T13:46:12.095Z,20.89
2018-08-27T13:48:40.216Z,20.86
2018-08-27T13:51:08.331Z,20.80
2018-08-27T13:53:36.427Z,21.00
2018-08-27T13:56:04.535Z,20.90
2018-08-27T13:58:32.647Z,20.99
2018-08-27T14:01:00.734Z,21.23
2018-08-27T14:03:28.826Z,21.34
2018-08-27T14:05:56.945Z,21.59
2018-08-27T14:08:25.046Z,21.52
2018-08-27T14:10:53.173Z,21.69
2018-08-27T14:13:21.239Z,21.81
2018-08-27T14:15:49.422Z,21.61
2018-08-27T14:18:17.451Z,21.97
2018-08-27T14:20:45.579Z,21.97
2018-08-27T14:23:13.620Z,22.04
2018-08-27T14:25:41.883Z,21.91
2018-08-27T14:28:09.840Z,21.75
2018-08-27T14:30:37.923Z,22.07
2018-08-27T14:33:06.058Z,22.05
2018-08-27T14:35:34.146Z,22.11
2018-08-27T14:38:02.166Z,21.99
2018-08-27T14:40:30.323Z,21.81
2018-08-27T14:42:58.456Z,21.87
2018-08-27T14:45:26.568Z,21.58
2018-08-27T14:47:54.677Z,21.52
2018-08-27T14:50:22.805Z,21.58
2018-08-27T14:52:50.880Z,21.46
2018-08-27T14:55:18.959Z,21.31
2018-08-27T14:57:47.028Z,21.31
2018-08-27T15:00:15.088Z,21.41
2018-08-27T15:02:43.189Z,21.60
2018-08-27T15:05:11.252Z,21.68
2018-08-27T15:07:39.437Z,21.90
2018-08-27T15:10:07.575Z,22.09
2018-08-27T15:12:35.907Z,22.32
2018-08-27T15:15:03.986Z,22.45
2018-08-27T15:17:32.047Z,22.41
2018-08-27T15:20:00.121Z,22.24
2018-08-27T15:22:28.183Z,22.16
2018-08-27T15:24:56.254Z,22.03
2018-08-27T15:27:24.358Z,22.13
2018-08-27T15:29:52.411Z,22.13
2018-08-27T15:32:20.501Z,22.10
2018-08-27T15:34:48.580Z,22.29
2018-08-27T15:37:16.705Z,22.37
2018-08-27T15:39:44.750Z,22.26
2018-08-27T15:42:12.847Z,22.27
2018-08-27T15:44:41.059Z,22.24
2018-08-27T15:47:09.024Z,22.49
2018-08-27T15:49:37.141Z,22.65
2018-08-27T15:52:05.232Z,22.71
2018-08-27T15:54:33.318Z,22.62
2018-08-27T15:57:01.588Z,22.19
2018-08-27T15:59:29.525Z,22.24
2018-08-27T16:01:57.618Z,22.23
2018-08-27T16:04:25.703Z,22.24
2018-08-27T16:06:53.871Z,22.36
2018-08-27T16:09:22.010Z,22.41
2018-08-27T16:11:50.113Z,22.23
2018-08-27T16:14:18.171Z,22.24
2018-08-27T16:16:46.292Z,22.11
2018-08-27T16:19:20.729Z,21.93
2018-08-27T16:21:48.820Z,21.92
2018-08-27T16:24:16.914Z,21.99
2018-08-27T16:26:45.019Z,22.02
2018-08-27T16:29:13.071Z,22.20
2018-08-27T16:31:41.143Z,22.03
2018-08-27T16:34:09.271Z,22.05
2018-08-27T16:36:37.407Z,22.11
2018-08-27T16:39:06.391Z,21.88
2018-08-27T16:41:34.492Z,21.83
2018-08-27T16:44:02.589Z,21.93
2018-08-27T16:46:30.724Z,22.09
2018-08-27T16:48:58.823Z,22.15
2018-08-27T16:51:26.899Z,22.36
2018-08-27T16:53:54.997Z,22.32
2018-08-27T16:56:23.089Z,21.91
2018-08-27T16:58:51.179Z,21.85
2018-08-27T17:01:19.248Z,21.88
2018-08-27T17:03:47.346Z,21.64
2018-08-27T17:06:15.417Z,21.56
2018-08-27T17:08:43.494Z,21.50
2018-08-27T17:11:11.599Z,21.61
2018-08-27T17:13:39.676Z,21.58
2018-08-27T17:16:07.796Z,21.54
2018-08-27T17:18:35.886Z,21.47
2018-08-27T17:21:03.979Z,21.50
2018-08-27T17:23:32.115Z,21.37
2018-08-27T17:26:00.259Z,21.34
2018-08-27T17:28:28.439Z,21.39
2018-08-27T17:30:56.527Z,21.52
2018-08-27T17:33:24.631Z,21.58
2018-08-27T17:35:52.777Z,21.42
2018-08-27T17:38:20.908Z,21.18
2018-08-27T17:40:49.040Z,21.06
2018-08-27T17:43:17.107Z,21.15
2018-08-27T17:45:45.264Z,20.99
2018-08-27T17:48:13.269Z,21.05
2018-08-27T17:50:41.531Z,21.02
2018-08-27T17:53:10.564Z,20.97
2018-08-27T17:55:39.927Z,20.95
2018-08-27T17:58:14.742Z,20.89
2018-08-27T18:00:43.200Z,20.67
2018-08-27T18:03:11.421Z,20.61
2018-08-27T18:05:39.838Z,20.68
2018-08-27T18:08:08.013Z,20.49
2018-08-27T18:10:36.253Z,20.50
2018-08-27T18:13:04.472Z,20.36
2018-08-27T18:15:32.696Z,20.54
2018-08-27T18:18:01.043Z,20.41
2018-08-27T18:20:29.487Z,20.31
2018-08-27T18:23:04.442Z,20.35
2018-08-27T18:25:33.076Z,20.27
2018-08-27T18:28:01.321Z,20.31
2018-08-27T18:30:29.562Z,20.37
2018-08-27T18:32:57.919Z,20.30
2018-08-27T18:35:27.279Z,20.22
2018-08-27T18:37:56.499Z,20.14
2018-08-27T18:40:25.844Z,20.10
2018-08-27T18:42:54.085Z,20.09
2018-08-27T18:45:23.263Z,20.05
2018-08-27T18:47:51.354Z,20.10
2018-08-27T18:50:20.492Z,19.80
2018-08-27T18:52:48.742Z,19.87
2018-08-27T18:55:17.828Z,19.85
2018-08-27T18:57:46.125Z,19.81
2018-08-27T19:00:15.702Z,19.84
2018-08-27T19:02:44.263Z,19.79
2018-08-27T19:05:12.503Z,19.81
2018-08-27T19:07:40.661Z,19.63
2018-08-27T19:10:08.933Z,19.63
2018-08-27T19:12:37.426Z,19.53
2018-08-27T19:15:06.170Z,19.54
2018-08-27T19:17:34.378Z,19.50
2018-08-27T19:20:02.637Z,19.37
2018-08-27T19:22:30.899Z,19.38
2018-08-27T19:24:59.274Z,19.37
2018-08-27T19:27:27.707Z,19.28
2018-08-27T19:29:56.034Z,19.23
2018-08-27T19:32:24.248Z,19.00
2018-08-27T19:34:53.982Z,18.88
2018-08-27T19:37:22.592Z,19.05
2018-08-27T19:39:51.068Z,19.09
2018-08-27T19:42:19.532Z,19.11
2018-08-27T19:44:49.376Z,19.03
2018-08-27T19:47:17.618Z,18.98
2018-08-27T19:49:46.141Z,18.93
2018-08-27T19:52:14.452Z,18.95
2018-08-27T19:54:43.632Z,18.95
2018-08-27T19:57:12.536Z,18.79
2018-08-27T19:59:40.894Z,18.84
2018-08-27T20:02:09.107Z,18.74
2018-08-27T20:04:38.274Z,18.77
2018-08-27T20:07:06.552Z,18.66
2018-08-27T20:09:37.385Z,18.51
2018-08-27T20:12:05.629Z,18.53
2018-08-27T20:14:39.113Z,18.57
2018-08-27T20:17:07.824Z,18.38
2018-08-27T20:19:37.377Z,18.28
2018-08-27T20:22:08.886Z,18.18
2018-08-27T20:24:37.566Z,18.38
2018-08-27T20:27:06.384Z,18.33
2018-08-27T20:29:36.752Z,18.23
2018-08-27T20:32:04.961Z,18.12
2018-08-27T20:34:33.222Z,18.13
2018-08-27T20:37:01.710Z,18.09
2018-08-27T20:39:30.076Z,18.14
2018-08-27T20:41:58.221Z,18.30
2018-08-27T20:44:27.100Z,18.41
2018-08-27T20:46:55.346Z,18.33
2018-08-27T20:49:23.707Z,18.37
2018-08-27T20:51:51.921Z,18.43
2018-08-27T20:54:20.198Z,18.35
2018-08-27T20:56:48.523Z,18.35
2018-08-27T20:59:17.383Z,18.47
2018-08-27T21:01:48.701Z,18.50
2018-08-27T21:04:17.974Z,18.43
2018-08-27T21:06:46.153Z,18.38
2018-08-27T21:09:14.538Z,18.46
2018-08-27T21:11:43.592Z,18.50
2018-08-27T21:14:23.708Z,18.76
2018-08-27T21:16:52.009Z,18.76
2018-08-27T21:19:20.218Z,18.84
2018-08-27T21:21:48.582Z,18.89
2018-08-27T21:24:16.924Z,18.84
2018-08-27T21:26:45.205Z,18.79
2018-08-27T21:29:14.095Z,18.72
2018-08-27T21:31:42.836Z,18.63
2018-08-27T21:34:11.861Z,18.61
2018-08-27T21:36:40.071Z,18.63
2018-08-27T21:39:08.935Z,18.61
2018-08-27T21:41:37.196Z,18.64
2018-08-27T21:44:05.671Z,18.54
2018-08-27T21:46:33.888Z,18.42
2018-08-27T21:49:02.097Z,18.42
2018-08-27T21:51:31.027Z,18.30
2018-08-27T21:53:59.375Z,18.35
2018-08-27T21:56:27.674Z,18.18
2018-08-27T21:58:55.861Z,18.15
2018-08-27T22:01:24.024Z,18.13
2018-08-27T22:03:57.398Z,18.05
2018-08-27T22:06:25.638Z,18.13
2018-08-27T22:08:53.895Z,18.14
2018-08-27T22:11:21.946Z,18.11
2018-08-27T22:13:50.027Z,18.22
2018-08-27T22:16:18.094Z,18.43
2018-08-27T22:18:46.159Z,18.64
2018-08-27T22:21:14.237Z,18.79
2018-08-27T22:23:42.323Z,18.84
2018-08-27T22:26:10.471Z,18.81
2018-08-27T22:28:38.587Z,18.84
2018-08-27T22:31:06.673Z,18.90
2018-08-27T22:33:34.724Z,19.01
2018-08-27T22:36:02.783Z,18.86
2018-08-27T22:38:30.895Z,18.88
2018-08-27T22:40:58.967Z,18.85
2018-08-27T22:43:27.027Z,18.88
2018-08-27T22:45:55.087Z,18.88
2018-08-27T22:48:23.142Z,18.76
2018-08-27T22:50:51.211Z,18.74
2018-08-27T22:53:19.267Z,18.73
2018-08-27T22:55:47.372Z,18.58
2018-08-27T22:58:15.558Z,18.42
2018-08-27T23:00:43.619Z,18.42
2018-08-27T23:03:17.081Z,18.37
2018-08-27T23:05:45.180Z,18.29
2018-08-27T23:08:13.226Z,18.41
2018-08-27T23:10:41.305Z,18.29
2018-08-27T23:13:09.376Z,18.39
2018-08-27T23:15:37.479Z,18.29
2018-08-27T23:18:05.643Z,18.27
2018-08-27T23:20:33.727Z,18.25
2018-08-27T23:23:01.811Z,18.13
2018-08-27T23:25:29.867Z,18.18
2018-08-27T23:27:57.910Z,18.15
2018-08-27T23:30:25.998Z,18.09
2018-08-27T23:32:54.044Z,18.00
2018-08-27T23:35:22.103Z,17.94
2018-08-27T23:37:50.206Z,17.94
2018-08-27T23:40:18.320Z,17.92
2018-08-27T23:42:46.407Z,18.01
2018-08-27T23:45:14.475Z,17.76
2018-08-27T23:47:42.559Z,17.77
2018-08-27T23:50:10.636Z,17.79
2018-08-27T23:52:38.857Z,17.77
2018-08-27T23:55:06.947Z,17.67
2018-08-27T23:57:35.108Z,17.60
